This is the latest recevied weather packets stored in our database for station/object W6UA-13. If no packets are shown the sender has not sent any weather packets the latest 10 day(s).
| Time | Temp. | Humidity | Pressure | Rain* | Wind** | Luminosity | Snow |
|---|---|---|---|---|---|---|---|
| 1777861183 | 14.44° C | 70% | 1014.5 hPa | 0 mm | - | 21 W/m² | - |
| 1777860283 | 15° C | 69% | 1014.5 hPa | 0 mm | - | 69 W/m² | - |
| 1777859383 | 15° C | 69% | 1014.5 hPa | 0 mm | - | 88 W/m² | - |
| 1777858483 | 15.56° C | 67% | 1014.4 hPa | 0 mm | - | 199 W/m² | - |
| 1777857583 | 15.56° C | 67% | 1014.5 hPa | 0 mm | - | 250 W/m² | - |
| 1777856683 | 15.56° C | 67% | 1014.7 hPa | 0 mm | - | 167 W/m² | - |
| 1777855783 | 15.56° C | 66% | 1014.6 hPa | 0 mm | - | 202 W/m² | - |
| 1777854883 | 16.67° C | 66% | 1014.4 hPa | 0 mm | - | 204 W/m² | - |
| 1777853983 | 16.67° C | 64% | 1014.6 hPa | 0 mm | - | 255 W/m² | - |
| 1777853083 | 17.78° C | 60% | 1014.3 hPa | 0 mm | - | 246 W/m² | - |
| 1777852183 | 17.22° C | 60% | 1014.3 hPa | 0 mm | - | 325 W/m² | - |
| 1777851283 | 16.67° C | 60% | 1014.2 hPa | 0 mm | - | 267 W/m² | - |
| 1777850383 | 17.78° C | 57% | 1014.3 hPa | 0 mm | - | 686 W/m² | - |
| 1777849484 | 17.78° C | 54% | 1014.2 hPa | 0 mm | - | 689 W/m² | - |
| 1777848584 | 18.33° C | 52% | 1014.2 hPa | 0 mm | - | 694 W/m² | - |
| 1777847684 | 18.89° C | 53% | 1014 hPa | 0 mm | - | 457 W/m² | - |
| 1777846784 | 18.89° C | 54% | 1014 hPa | 0 mm | - | 763 W/m² | - |
| 1777845884 | 18.33° C | 53% | 1014.2 hPa | 0 mm | - | 795 W/m² | - |
| 1777844984 | 17.78° C | 56% | 1014.3 hPa | 0 mm | - | 817 W/m² | - |
| 1777844084 | 18.33° C | 56% | 1014.3 hPa | 0 mm | - | 840 W/m² | - |
| 1777843184 | 17.78° C | 58% | 1014.2 hPa | 0 mm | - | 854 W/m² | - |
| 1777842284 | 18.33° C | 58% | 1014.3 hPa | 0 mm | - | 874 W/m² | - |
| 1777841384 | 17.22° C | 60% | 1014.4 hPa | 0 mm | - | 884 W/m² | - |
| 1777840484 | 17.22° C | 60% | 1014.6 hPa | 0 mm | - | 895 W/m² | - |
| 1777839584 | 16.67° C | 63% | 1014.7 hPa | 0 mm | - | 900 W/m² | - |
* Rain latest hour (hover to see other rain measurements)
** Current wind speed in m/s (hover to see current wind gust speed)